Time,TemperatureF,DewpointF,PressureIn,WindDirection,WindDirectionDegrees,WindSpeedMPH,WindSpeedGustMPH,Humidity,HourlyPrecipIn,Conditions,Clouds,dailyrainin,SoftwareType,DateUTC
2013-08-08 00:01:00,71.0,61.9,29.93,NE,45,2.4,2.4,73,0.00,,---,0.00,VWS V14.01,2013-08-08 04:01:00,
2013-08-08 00:03:00,71.0,61.9,29.92,NW,315,0.0,0.0,73,0.00,,---,0.00,VWS V14.01,2013-08-08 04:03:00,
2013-08-08 00:04:00,71.2,62.1,29.92,ENE,68,1.5,1.5,73,0.00,,---,0.00,VWS V14.01,2013-08-08 04:04:00,
2013-08-08 00:08:00,71.2,62.1,29.92,ESE,112,0.0,0.0,73,0.00,,---,0.00,VWS V14.01,2013-08-08 04:08:00,
2013-08-08 00:13:00,71.2,62.1,29.92,NNE,22,0.0,0.0,73,0.00,,---,0.00,VWS V14.01,2013-08-08 04:13:00,
2013-08-08 00:17:00,71.4,62.3,29.93,NW,315,0.0,0.0,73,0.00,,---,0.00,VWS V14.01,2013-08-08 04:17:00,
2013-08-08 00:22:00,71.2,62.1,29.93,ENE,68,0.0,0.0,73,0.00,,---,0.00,VWS V14.01,2013-08-08 04:22:00,
2013-08-08 00:27:00,71.2,62.1,29.93,NNE,22,0.0,0.0,73,0.00,,---,0.00,VWS V14.01,2013-08-08 04:27:00,
2013-08-08 00:32:00,70.8,61.7,29.93,NNW,338,0.0,0.0,73,0.00,,---,0.00,VWS V14.01,2013-08-08 04:32:00,
2013-08-08 00:37:00,70.8,61.7,29.93,NE,45,0.0,0.0,73,0.00,,---,0.00,VWS V14.01,2013-08-08 04:37:00,
2013-08-08 00:42:00,70.7,61.6,29.93,NNE,22,0.0,0.0,73,0.00,,---,0.00,VWS V14.01,2013-08-08 04:42:00,
2013-08-08 00:47:00,70.3,61.2,29.93,NNW,338,0.0,0.0,73,0.00,,---,0.00,VWS V14.01,2013-08-08 04:47:00,
2013-08-08 00:52:00,70.1,61.4,29.93,NE,45,0.0,0.0,74,0.00,,---,0.00,VWS V14.01,2013-08-08 04:52:00,
2013-08-08 00:57:00,69.6,61.0,29.93,North,0,0.0,0.0,74,0.00,,---,0.00,VWS V14.01,2013-08-08 04:57:00,
2013-08-08 01:03:00,69.4,60.8,29.94,NW,315,0.0,0.0,74,0.00,,---,0.00,VWS V14.01,2013-08-08 05:03:00,
2013-08-08 01:08:00,68.9,60.7,29.93,North,0,0.0,0.0,75,0.00,,---,0.00,VWS V14.01,2013-08-08 05:08:00,
2013-08-08 01:14:00,68.7,60.5,29.93,NW,315,0.0,0.0,75,0.00,,---,0.00,VWS V14.01,2013-08-08 05:14:00,
2013-08-08 01:19:00,68.5,60.6,29.94,North,0,0.0,0.0,76,0.00,,---,0.00,VWS V14.01,2013-08-08 05:19:00,
2013-08-08 01:24:00,68.5,60.6,29.94,NNE,22,4.4,4.4,76,0.00,,---,0.00,VWS V14.01,2013-08-08 05:24:00,
2013-08-08 01:29:00,68.5,60.6,29.93,NNW,338,0.0,0.0,76,0.00,,---,0.00,VWS V14.01,2013-08-08 05:29:00,
2013-08-08 01:34:00,68.5,60.3,29.94,NE,45,0.0,0.0,75,0.00,,---,0.00,VWS V14.01,2013-08-08 05:34:00,
2013-08-08 01:39:00,68.3,60.1,29.93,NE,45,0.0,0.0,75,0.00,,---,0.00,VWS V14.01,2013-08-08 05:39:00,
2013-08-08 01:44:00,68.1,59.9,29.93,NE,45,0.0,0.0,75,0.00,,---,0.00,VWS V14.01,2013-08-08 05:44:00,
2013-08-08 01:49:00,67.8,60.0,29.93,East,90,0.0,0.0,76,0.00,,---,0.00,VWS V14.01,2013-08-08 05:49:00,
2013-08-08 01:54:00,67.8,60.0,29.94,North,0,0.0,0.0,76,0.00,,---,0.00,VWS V14.01,2013-08-08 05:54:00,
2013-08-08 01:59:00,67.6,59.8,29.94,NNE,22,0.0,0.0,76,0.00,,---,0.00,VWS V14.01,2013-08-08 05:59:00,
2013-08-08 02:04:00,67.6,-5.8,29.94,North,0,0.0,0.0,76,0.00,,---,0.00,VWS V14.01,2013-08-08 06:04:00,
2013-08-08 02:10:00,67.6,59.8,29.94,North,0,0.0,0.0,76,0.00,,---,0.00,VWS V14.01,2013-08-08 06:10:00,
2013-08-08 02:15:00,67.1,59.3,29.95,NE,45,0.0,0.0,76,0.00,,---,0.00,VWS V14.01,2013-08-08 06:15:00,
2013-08-08 02:20:00,67.1,59.7,29.95,NE,45,0.0,0.0,77,0.00,,---,0.00,VWS V14.01,2013-08-08 06:20:00,
2013-08-08 02:25:00,67.1,59.7,29.95,NE,45,0.0,0.0,77,0.00,,---,0.00,VWS V14.01,2013-08-08 06:25:00,
2013-08-08 02:30:00,66.9,59.1,29.95,NNW,338,0.0,0.0,76,0.00,,---,0.00,VWS V14.01,2013-08-08 06:30:00,
2013-08-08 02:35:00,66.5,59.1,29.95,NNW,338,0.0,0.0,77,0.00,,---,0.00,VWS V14.01,2013-08-08 06:35:00,
2013-08-08 02:40:00,66.3,58.9,29.95,North,0,0.0,0.0,77,0.00,,---,0.00,VWS V14.01,2013-08-08 06:40:00,
2013-08-08 02:45:00,66.0,58.6,29.95,WNW,292,0.0,0.0,77,0.00,,---,0.00,VWS V14.01,2013-08-08 06:45:00,
2013-08-08 02:50:00,66.0,58.6,29.95,NW,315,0.0,0.0,77,0.00,,---,0.00,VWS V14.01,2013-08-08 06:50:00,
2013-08-08 02:55:00,66.0,58.6,29.96,NNW,338,0.0,0.0,77,0.00,,---,0.00,VWS V14.01,2013-08-08 06:55:00,
2013-08-08 03:01:00,65.4,58.4,29.96,NW,315,0.0,0.0,78,0.00,,---,0.00,VWS V14.01,2013-08-08 07:01:00,
2013-08-08 03:07:00,65.3,58.3,29.96,NE,45,0.0,0.0,78,0.00,,---,0.00,VWS V14.01,2013-08-08 07:07:00,
2013-08-08 03:12:00,65.1,58.4,29.95,NE,45,0.0,0.0,79,0.00,,---,0.00,VWS V14.01,2013-08-08 07:12:00,
2013-08-08 03:17:00,65.1,58.4,29.96,NNW,338,0.0,0.0,79,0.00,,---,0.00,VWS V14.01,2013-08-08 07:17:00,
2013-08-08 03:22:00,65.1,58.4,29.96,NNW,338,0.0,0.0,79,0.00,,---,0.00,VWS V14.01,2013-08-08 07:22:00,
2013-08-08 03:27:00,65.1,58.4,29.96,NE,45,0.0,0.0,79,0.00,,---,0.00,VWS V14.01,2013-08-08 07:27:00,
2013-08-08 03:32:00,65.1,58.4,29.96,NW,315,0.0,0.0,79,0.00,,---,0.00,VWS V14.01,2013-08-08 07:32:00,
2013-08-08 03:37:00,65.1,58.1,29.96,NW,315,0.0,0.0,78,0.00,,---,0.00,VWS V14.01,2013-08-08 07:37:00,
2013-08-08 03:42:00,64.9,58.2,29.96,NNW,338,0.0,0.0,79,0.00,,---,0.00,VWS V14.01,2013-08-08 07:42:00,
2013-08-08 03:47:00,64.5,57.8,29.96,NW,315,0.0,0.0,79,0.00,,---,0.00,VWS V14.01,2013-08-08 07:47:00,
2013-08-08 03:52:00,64.2,57.6,29.96,NW,315,0.0,0.0,79,0.00,,---,0.00,VWS V14.01,2013-08-08 07:52:00,
2013-08-08 03:57:00,64.0,57.4,29.96,North,0,0.0,0.0,79,0.00,,---,0.00,VWS V14.01,2013-08-08 07:57:00,
2013-08-08 04:02:00,63.6,57.0,29.96,NW,315,0.0,0.0,79,0.00,,---,0.00,VWS V14.01,2013-08-08 08:02:00,
2013-08-08 04:07:00,63.5,57.2,29.96,NNE,22,0.0,0.0,80,0.00,,---,0.00,VWS V14.01,2013-08-08 08:07:00,
2013-08-08 04:12:00,63.5,57.2,29.96,NNE,22,0.0,0.0,80,0.00,,---,0.00,VWS V14.01,2013-08-08 08:12:00,
2013-08-08 04:13:00,63.5,57.2,29.96,NNE,22,0.0,0.0,80,0.00,,---,0.00,VWS V14.01,2013-08-08 08:13:00,
2013-08-08 04:18:00,63.6,57.3,29.96,NE,45,0.0,0.0,80,0.00,,---,0.00,VWS V14.01,2013-08-08 08:18:00,
2013-08-08 04:23:00,64.0,57.7,29.96,NNE,22,0.0,0.0,80,0.00,,---,0.00,VWS V14.01,2013-08-08 08:23:00,
2013-08-08 04:28:00,64.0,57.7,29.96,North,0,0.0,0.0,80,0.00,,---,0.00,VWS V14.01,2013-08-08 08:28:00,
2013-08-08 04:33:00,63.6,57.3,29.96,ENE,68,0.0,0.0,80,0.00,,---,0.00,VWS V14.01,2013-08-08 08:33:00,
2013-08-08 04:38:00,63.6,57.3,29.97,WNW,292,0.0,0.0,80,0.00,,---,0.00,VWS V14.01,2013-08-08 08:38:00,
2013-08-08 04:43:00,63.6,57.0,29.97,North,0,0.0,0.0,79,0.00,,---,0.00,VWS V14.01,2013-08-08 08:43:00,
2013-08-08 04:48:00,63.5,57.2,29.97,NE,45,0.0,0.0,80,0.00,,---,0.00,VWS V14.01,2013-08-08 08:48:00,
2013-08-08 04:53:00,63.3,57.0,29.97,ENE,68,0.0,0.0,80,0.00,,---,0.00,VWS V14.01,2013-08-08 08:53:00,
2013-08-08 04:58:00,63.3,57.0,29.97,NE,45,0.0,0.0,80,0.00,,---,0.00,VWS V14.01,2013-08-08 08:58:00,
2013-08-08 05:03:00,63.3,-4.7,29.97,NW,315,0.0,0.0,80,0.00,,---,0.00,VWS V14.01,2013-08-08 09:03:00,
2013-08-08 05:08:00,63.3,-4.7,29.97,NW,315,0.0,0.0,80,0.00,,---,0.00,VWS V14.01,2013-08-08 09:08:00,
2013-08-08 05:14:00,62.7,56.5,29.97,ENE,68,0.0,0.0,80,0.00,,---,0.00,VWS V14.01,2013-08-08 09:14:00,
2013-08-08 05:19:00,62.7,56.5,29.97,NW,315,0.0,0.0,80,0.00,,---,0.00,VWS V14.01,2013-08-08 09:19:00,
2013-08-08 05:24:00,62.4,56.2,29.97,North,0,0.0,0.0,80,0.00,,---,0.00,VWS V14.01,2013-08-08 09:24:00,
2013-08-08 05:29:00,62.4,56.2,29.98,East,90,0.0,0.0,80,0.00,,---,0.00,VWS V14.01,2013-08-08 09:29:00,
2013-08-08 05:34:00,62.2,56.0,29.98,NNE,22,0.0,0.0,80,0.00,,---,0.00,VWS V14.01,2013-08-08 09:34:00,
2013-08-08 05:39:00,62.2,56.0,29.98,NNW,338,0.0,0.0,80,0.00,,---,0.00,VWS V14.01,2013-08-08 09:39:00,
2013-08-08 05:44:00,62.2,56.0,29.98,NNE,22,0.0,0.0,80,0.00,,---,0.00,VWS V14.01,2013-08-08 09:44:00,
2013-08-08 05:49:00,62.2,56.0,29.98,NNW,338,0.0,0.0,80,0.00,,---,0.00,VWS V14.01,2013-08-08 09:49:00,
2013-08-08 05:54:00,62.2,56.0,29.98,NNE,22,0.0,0.0,80,0.00,,---,0.00,VWS V14.01,2013-08-08 09:54:00,
2013-08-08 05:59:00,62.4,56.2,29.99,NNE,22,0.0,0.0,80,0.00,,---,0.00,VWS V14.01,2013-08-08 09:59:00,
2013-08-08 06:04:00,62.4,56.2,29.99,NNE,22,0.0,0.0,80,0.00,,---,0.00,VWS V14.01,2013-08-08 10:04:00,
2013-08-08 06:09:00,62.4,56.2,29.99,NE,45,0.0,0.0,80,0.00,,---,0.00,VWS V14.01,2013-08-08 10:09:00,
2013-08-08 06:14:00,62.4,56.2,29.99,NE,45,0.0,0.0,80,0.00,,---,0.00,VWS V14.01,2013-08-08 10:14:00,
2013-08-08 06:19:00,62.7,56.1,29.99,NE,45,0.0,0.0,79,0.00,,---,0.00,VWS V14.01,2013-08-08 10:19:00,
2013-08-08 06:24:00,62.7,56.1,29.99,NE,45,0.0,0.0,79,0.00,,---,0.00,VWS V14.01,2013-08-08 10:24:00,
2013-08-08 06:29:00,62.7,55.8,29.99,North,0,0.0,0.0,78,0.00,,---,0.00,VWS V14.01,2013-08-08 10:29:00,
2013-08-08 06:34:00,62.2,55.3,30.00,NNE,22,0.0,0.0,78,0.00,,---,0.00,VWS V14.01,2013-08-08 10:34:00,
2013-08-08 06:39:00,61.8,55.2,30.00,NNE,22,0.0,0.0,79,0.00,,---,0.00,VWS V14.01,2013-08-08 10:39:00,
2013-08-08 06:44:00,61.8,55.2,30.00,NNE,22,0.0,0.0,79,0.00,,---,0.00,VWS V14.01,2013-08-08 10:44:00,
2013-08-08 06:49:00,61.7,55.1,30.00,NNE,22,0.0,0.0,79,0.00,,---,0.00,VWS V14.01,2013-08-08 10:49:00,
2013-08-08 06:54:00,61.7,55.1,30.00,NE,45,0.0,0.0,79,0.00,,---,0.00,VWS V14.01,2013-08-08 10:54:00,
2013-08-08 06:59:00,61.7,55.1,30.00,NE,45,0.0,0.0,79,0.00,,---,0.00,VWS V14.01,2013-08-08 10:59:00,
2013-08-08 07:04:00,61.8,55.2,30.00,NNE,22,0.0,0.0,79,0.00,,---,0.00,VWS V14.01,2013-08-08 11:04:00,
2013-08-08 07:09:00,61.8,55.2,30.00,North,0,0.0,0.0,79,0.00,,---,0.00,VWS V14.01,2013-08-08 11:09:00,
2013-08-08 07:14:00,62.0,55.4,30.00,NE,45,0.0,0.0,79,0.00,,---,0.00,VWS V14.01,2013-08-08 11:14:00,
2013-08-08 07:19:00,62.2,55.3,30.00,NE,45,0.0,0.0,78,0.00,,---,0.00,VWS V14.01,2013-08-08 11:19:00,
2013-08-08 07:24:00,62.2,55.3,30.00,NE,45,0.0,0.0,78,0.00,,---,0.00,VWS V14.01,2013-08-08 11:24:00,
2013-08-08 07:29:00,62.2,55.3,30.00,NNE,22,0.0,0.0,78,0.00,,---,0.00,VWS V14.01,2013-08-08 11:29:00,
2013-08-08 07:34:00,62.4,55.1,30.00,NNE,22,0.0,0.0,77,0.00,,---,0.00,VWS V14.01,2013-08-08 11:34:00,
2013-08-08 07:39:00,62.4,55.1,30.00,NNE,22,0.0,0.0,77,0.00,,---,0.00,VWS V14.01,2013-08-08 11:39:00,
2013-08-08 07:44:00,62.4,55.1,30.00,NNW,338,0.0,0.0,77,0.00,,---,0.00,VWS V14.01,2013-08-08 11:44:00,
2013-08-08 07:49:00,62.4,55.1,30.00,NE,45,0.0,0.0,77,0.00,,---,0.00,VWS V14.01,2013-08-08 11:49:00,
2013-08-08 07:54:00,62.4,55.1,30.00,NNE,22,0.0,0.0,77,0.00,,---,0.00,VWS V14.01,2013-08-08 11:54:00,
2013-08-08 07:59:00,62.4,55.1,30.00,NE,45,0.0,0.0,77,0.00,,---,0.00,VWS V14.01,2013-08-08 11:59:00,
2013-08-08 08:04:00,62.4,54.8,30.01,NE,45,1.3,1.3,76,0.00,,---,0.00,VWS V14.01,2013-08-08 12:04:00,
2013-08-08 08:09:00,62.4,54.8,30.01,ENE,68,0.0,0.0,76,0.00,,---,0.00,VWS V14.01,2013-08-08 12:09:00,
2013-08-08 08:14:00,62.4,54.8,30.01,NE,45,0.0,0.0,76,0.00,,---,0.00,VWS V14.01,2013-08-08 12:14:00,
2013-08-08 08:19:00,62.2,54.9,30.01,NE,45,0.0,0.0,77,0.00,,---,0.00,VWS V14.01,2013-08-08 12:19:00,
2013-08-08 08:24:00,62.2,54.9,30.00,NE,45,0.0,0.0,77,0.00,,---,0.00,VWS V14.01,2013-08-08 12:24:00,
2013-08-08 08:29:00,62.2,54.9,30.01,NE,45,0.0,0.0,77,0.00,,---,0.00,VWS V14.01,2013-08-08 12:29:00,
2013-08-08 08:35:00,62.4,55.1,30.01,NNE,22,0.0,0.0,77,0.00,,---,0.00,VWS V14.01,2013-08-08 12:35:00,
2013-08-08 08:40:00,62.4,55.1,30.01,NNE,22,0.0,0.0,77,0.00,,---,0.00,VWS V14.01,2013-08-08 12:40:00,
2013-08-08 08:45:00,62.2,54.9,30.01,WSW,248,0.0,0.0,77,0.00,,---,0.00,VWS V14.01,2013-08-08 12:45:00,
2013-08-08 08:50:00,62.2,54.9,30.01,NE,45,0.0,0.0,77,0.00,,---,0.00,VWS V14.01,2013-08-08 12:50:00,
2013-08-08 08:55:00,62.4,55.1,30.01,NE,45,0.0,0.0,77,0.00,,---,0.00,VWS V14.01,2013-08-08 12:55:00,
2013-08-08 09:00:00,62.7,55.4,30.01,North,0,0.0,0.0,77,0.00,,---,0.00,VWS V14.01,2013-08-08 13:00:00,
2013-08-08 09:05:00,62.7,55.4,30.01,NE,45,0.0,0.0,77,0.00,,---,0.00,VWS V14.01,2013-08-08 13:05:00,
2013-08-08 09:10:00,62.7,55.4,30.01,NE,45,0.0,0.0,77,0.00,,---,0.00,VWS V14.01,2013-08-08 13:10:00,
2013-08-08 09:15:00,63.1,55.8,30.01,ENE,68,0.0,0.0,77,0.00,,---,0.00,VWS V14.01,2013-08-08 13:15:00,
2013-08-08 09:20:00,63.3,56.0,30.00,North,0,0.0,0.0,77,0.00,,---,0.00,VWS V14.01,2013-08-08 13:20:00,
2013-08-08 09:25:00,63.6,56.3,30.01,NNE,22,0.0,0.0,77,0.00,,---,0.00,VWS V14.01,2013-08-08 13:25:00,
2013-08-08 09:30:00,63.8,56.1,30.01,NNE,22,0.0,0.0,76,0.00,,---,0.00,VWS V14.01,2013-08-08 13:30:00,
2013-08-08 09:35:00,64.0,56.3,30.01,ENE,68,0.0,0.0,76,0.00,,---,0.00,VWS V14.01,2013-08-08 13:35:00,
2013-08-08 09:40:00,64.5,56.8,30.02,ENE,68,0.0,0.0,76,0.00,,---,0.00,VWS V14.01,2013-08-08 13:40:00,
2013-08-08 09:45:00,64.9,57.2,30.01,ENE,68,0.0,0.0,76,0.00,,---,0.00,VWS V14.01,2013-08-08 13:45:00,
2013-08-08 09:50:00,65.3,56.8,30.02,NE,45,2.4,2.4,74,0.00,,---,0.00,VWS V14.01,2013-08-08 13:50:00,
2013-08-08 09:55:00,65.4,56.5,30.02,NE,45,1.1,5.8,73,0.00,,---,0.00,VWS V14.01,2013-08-08 13:55:00,
2013-08-08 10:00:00,65.8,56.5,30.02,NNE,22,2.2,2.2,72,0.00,,---,0.00,VWS V14.01,2013-08-08 14:00:00,
2013-08-08 10:05:00,66.0,56.3,30.01,NE,45,0.0,0.0,71,0.00,,---,0.00,VWS V14.01,2013-08-08 14:05:00,
2013-08-08 10:10:00,66.2,56.5,30.01,NE,45,0.0,0.0,71,0.00,,---,0.00,VWS V14.01,2013-08-08 14:10:00,
2013-08-08 10:15:00,66.3,56.2,30.01,NE,45,0.0,0.0,70,0.00,,---,0.00,VWS V14.01,2013-08-08 14:15:00,
2013-08-08 10:20:00,66.7,56.6,30.02,SE,135,0.0,0.0,70,0.00,,---,0.00,VWS V14.01,2013-08-08 14:20:00,
2013-08-08 10:25:00,66.7,56.2,30.02,ENE,68,0.0,0.0,69,0.00,,---,0.00,VWS V14.01,2013-08-08 14:25:00,
2013-08-08 10:30:00,66.9,56.4,30.02,NNE,22,0.0,0.0,69,0.00,,---,0.00,VWS V14.01,2013-08-08 14:30:00,
2013-08-08 10:35:00,67.1,56.6,30.02,North,0,2.0,2.0,69,0.00,,---,0.00,VWS V14.01,2013-08-08 14:35:00,
2013-08-08 10:40:00,67.4,56.5,30.02,ENE,68,6.4,6.4,68,0.00,,---,0.00,VWS V14.01,2013-08-08 14:40:00,
2013-08-08 10:45:00,67.6,56.7,30.03,ESE,112,0.0,0.0,68,0.00,,---,0.00,VWS V14.01,2013-08-08 14:45:00,
2013-08-08 10:50:00,67.6,56.7,30.02,SE,135,0.8,0.8,68,0.00,,---,0.00,VWS V14.01,2013-08-08 14:50:00,
2013-08-08 10:55:00,67.8,56.9,30.03,NE,45,0.0,0.0,68,0.00,,---,0.00,VWS V14.01,2013-08-08 14:55:00,
2013-08-08 11:00:00,67.8,56.5,30.03,ENE,68,0.0,0.0,67,0.00,,---,0.00,VWS V14.01,2013-08-08 15:00:00,
2013-08-08 11:05:00,68.0,56.7,30.03,ENE,68,0.0,0.0,67,0.00,,---,0.00,VWS V14.01,2013-08-08 15:05:00,
2013-08-08 11:10:00,68.3,56.9,30.03,ESE,112,0.0,1.3,67,0.00,,---,0.00,VWS V14.01,2013-08-08 15:10:00,
2013-08-08 11:15:00,68.5,57.1,30.03,ESE,112,8.2,8.2,67,0.00,,---,0.00,VWS V14.01,2013-08-08 15:15:00,
2013-08-08 11:20:00,68.7,56.9,30.03,ESE,112,0.0,0.0,66,0.00,,---,0.00,VWS V14.01,2013-08-08 15:20:00,
2013-08-08 11:25:00,69.0,57.2,30.03,ESE,112,0.0,3.1,66,0.00,,---,0.00,VWS V14.01,2013-08-08 15:25:00,
2013-08-08 11:30:00,69.4,57.6,30.03,East,90,0.0,0.0,66,0.00,,---,0.00,VWS V14.01,2013-08-08 15:30:00,
2013-08-08 11:35:00,69.6,57.8,30.03,ENE,68,3.1,3.1,66,0.00,,---,0.00,VWS V14.01,2013-08-08 15:35:00,
2013-08-08 11:40:00,69.9,57.6,30.03,NNE,22,6.0,6.0,65,0.00,,---,0.00,VWS V14.01,2013-08-08 15:40:00,
2013-08-08 11:45:00,70.1,57.4,30.03,ENE,68,0.0,0.0,64,0.00,,---,0.00,VWS V14.01,2013-08-08 15:45:00,
2013-08-08 11:50:00,70.3,57.6,30.03,ENE,68,0.0,0.0,64,0.00,,---,0.00,VWS V14.01,2013-08-08 15:50:00,
2013-08-08 11:55:00,70.5,57.3,30.03,ENE,68,0.0,0.0,63,0.00,,---,0.00,VWS V14.01,2013-08-08 15:55:00,
2013-08-08 12:00:00,70.7,57.5,30.03,NE,45,0.0,0.0,63,0.00,,---,0.00,VWS V14.01,2013-08-08 16:00:00,
2013-08-08 12:05:00,70.7,57.1,30.02,NNE,22,0.0,0.0,62,0.00,,---,0.00,VWS V14.01,2013-08-08 16:05:00,
2013-08-08 12:10:00,70.8,57.2,30.02,East,90,0.0,0.0,62,0.00,,---,0.00,VWS V14.01,2013-08-08 16:10:00,
2013-08-08 12:15:00,71.2,57.1,30.02,NE,45,0.0,0.0,61,0.00,,---,0.00,VWS V14.01,2013-08-08 16:15:00,
2013-08-08 12:20:00,71.2,56.6,30.02,NE,45,3.8,3.8,60,0.00,,---,0.00,VWS V14.01,2013-08-08 16:20:00,
2013-08-08 12:25:00,71.2,56.2,30.02,NE,45,0.0,0.0,59,0.00,,---,0.00,VWS V14.01,2013-08-08 16:25:00,
2013-08-08 12:30:00,71.2,56.2,30.01,NE,45,6.0,6.0,59,0.00,,---,0.00,VWS V14.01,2013-08-08 16:30:00,
2013-08-08 12:35:00,71.2,56.2,30.01,ENE,68,0.0,0.0,59,0.00,,---,0.00,VWS V14.01,2013-08-08 16:35:00,
2013-08-08 12:40:00,71.2,56.2,30.02,ENE,68,0.0,0.0,59,0.00,,---,0.00,VWS V14.01,2013-08-08 16:40:00,
2013-08-08 12:45:00,71.2,56.2,30.02,NNE,22,2.9,2.9,59,0.00,,---,0.00,VWS V14.01,2013-08-08 16:45:00,
2013-08-08 12:50:00,70.8,55.8,30.02,NE,45,2.2,2.2,59,0.00,,---,0.00,VWS V14.01,2013-08-08 16:50:00,
2013-08-08 12:55:00,70.8,55.8,30.02,ESE,112,0.8,7.3,59,0.00,,---,0.00,VWS V14.01,2013-08-08 16:55:00,
2013-08-08 13:00:00,70.8,55.3,30.02,NE,45,6.0,6.0,58,0.00,,---,0.00,VWS V14.01,2013-08-08 17:00:00,
2013-08-08 13:07:00,70.8,55.3,30.02,East,90,0.0,0.0,58,0.00,,---,0.00,VWS V14.01,2013-08-08 17:07:00,
2013-08-08 13:12:00,70.8,55.3,30.02,NE,45,0.0,0.0,58,0.00,,---,0.00,VWS V14.01,2013-08-08 17:12:00,
2013-08-08 13:17:00,70.8,55.3,30.02,North,0,0.0,0.6,58,0.00,,---,0.00,VWS V14.01,2013-08-08 17:17:00,
2013-08-08 13:22:00,70.8,53.3,30.02,NNW,338,5.1,5.1,54,0.00,,---,0.00,VWS V14.01,2013-08-08 17:22:00,
2013-08-08 13:27:00,70.5,54.5,30.02,NW,315,0.0,0.0,57,0.00,,---,0.00,VWS V14.01,2013-08-08 17:27:00,
2013-08-08 13:32:00,70.7,55.2,30.01,ENE,68,3.1,3.1,58,0.00,,---,0.00,VWS V14.01,2013-08-08 17:32:00,
2013-08-08 13:37:00,70.8,54.3,30.02,NNE,22,0.0,0.0,56,0.00,,---,0.00,VWS V14.01,2013-08-08 17:37:00,
2013-08-08 13:42:00,70.8,54.8,30.02,ENE,68,1.3,1.3,57,0.00,,---,0.00,VWS V14.01,2013-08-08 17:42:00,
2013-08-08 13:47:00,71.0,55.5,30.02,North,0,0.0,8.0,58,0.00,,---,0.00,VWS V14.01,2013-08-08 17:47:00,
2013-08-08 13:52:00,71.2,55.2,30.02,NE,45,1.5,1.5,57,0.00,,---,0.00,VWS V14.01,2013-08-08 17:52:00,
2013-08-08 13:57:00,71.4,55.9,30.02,East,90,0.6,0.6,58,0.00,,---,0.00,VWS V14.01,2013-08-08 17:57:00,
2013-08-08 14:02:00,71.6,55.6,30.02,NE,45,2.0,5.1,57,0.00,,---,0.00,VWS V14.01,2013-08-08 18:02:00,
2013-08-08 14:07:00,71.7,54.7,30.02,NE,45,0.0,0.0,55,0.00,,---,0.00,VWS V14.01,2013-08-08 18:07:00,
2013-08-08 14:12:00,71.9,54.9,30.02,NNE,22,0.0,0.0,55,0.00,,---,0.00,VWS V14.01,2013-08-08 18:12:00,
2013-08-08 14:17:00,71.9,54.9,30.02,East,90,2.4,2.4,55,0.00,,---,0.00,VWS V14.01,2013-08-08 18:17:00,
2013-08-08 14:22:00,71.9,55.4,30.02,NE,45,7.3,7.3,56,0.00,,---,0.00,VWS V14.01,2013-08-08 18:22:00,
2013-08-08 14:27:00,72.1,54.6,30.01,West,270,0.0,0.0,54,0.00,,---,0.00,VWS V14.01,2013-08-08 18:27:00,
2013-08-08 14:32:00,72.1,55.6,30.01,NE,45,3.1,3.1,56,0.00,,---,0.00,VWS V14.01,2013-08-08 18:32:00,
2013-08-08 14:37:00,72.3,55.2,30.01,ENE,68,0.8,0.8,55,0.00,,---,0.00,VWS V14.01,2013-08-08 18:37:00,
2013-08-08 14:42:00,72.3,54.7,30.01,West,270,0.0,0.0,54,0.00,,---,0.00,VWS V14.01,2013-08-08 18:42:00,
2013-08-08 14:47:00,72.3,55.2,30.00,ENE,68,0.0,6.4,55,0.00,,---,0.00,VWS V14.01,2013-08-08 18:47:00,
2013-08-08 14:52:00,72.5,54.9,30.00,ENE,68,0.0,0.0,54,0.00,,---,0.00,VWS V14.01,2013-08-08 18:52:00,
2013-08-08 14:57:00,72.6,55.5,30.00,North,0,0.0,4.9,55,0.00,,---,0.00,VWS V14.01,2013-08-08 18:57:00,
2013-08-08 15:02:00,72.6,55.5,30.00,ENE,68,3.3,3.3,55,0.00,,---,0.00,VWS V14.01,2013-08-08 19:02:00,
2013-08-08 15:07:00,72.6,55.0,30.00,NE,45,3.8,3.8,54,0.00,,---,0.00,VWS V14.01,2013-08-08 19:07:00,
2013-08-08 15:12:00,72.6,55.5,30.00,East,90,4.4,4.4,55,0.00,,---,0.00,VWS V14.01,2013-08-08 19:12:00,
2013-08-08 15:17:00,72.6,55.0,30.00,NE,45,0.0,0.0,54,0.00,,---,0.00,VWS V14.01,2013-08-08 19:17:00,
2013-08-08 15:22:00,72.5,54.4,30.00,ENE,68,6.7,6.7,53,0.00,,---,0.00,VWS V14.01,2013-08-08 19:22:00,
2013-08-08 15:27:00,72.3,54.2,30.00,East,90,1.5,1.5,53,0.00,,---,0.00,VWS V14.01,2013-08-08 19:27:00,
2013-08-08 15:32:00,72.3,54.7,30.00,NE,45,0.0,0.0,54,0.00,,---,0.00,VWS V14.01,2013-08-08 19:32:00,
2013-08-08 15:37:00,72.5,54.4,30.00,ENE,68,0.0,0.0,53,0.00,,---,0.00,VWS V14.01,2013-08-08 19:37:00,
2013-08-08 15:42:00,72.6,54.5,30.00,ENE,68,0.0,0.0,53,0.00,,---,0.00,VWS V14.01,2013-08-08 19:42:00,
2013-08-08 15:47:00,72.8,54.2,30.00,SE,135,0.0,0.0,52,0.00,,---,0.00,VWS V14.01,2013-08-08 19:47:00,
2013-08-08 15:52:00,73.0,54.4,30.00,NE,45,6.9,6.9,52,0.00,,---,0.00,VWS V14.01,2013-08-08 19:52:00,
2013-08-08 15:57:00,73.0,54.4,30.00,NE,45,2.0,3.3,52,0.00,,---,0.00,VWS V14.01,2013-08-08 19:57:00,
2013-08-08 16:03:00,73.2,54.5,30.00,NE,45,0.0,0.0,52,0.00,,---,0.00,VWS V14.01,2013-08-08 20:03:00,
2013-08-08 16:08:00,73.2,54.5,30.00,NE,45,1.7,8.0,52,0.00,,---,0.00,VWS V14.01,2013-08-08 20:08:00,
2013-08-08 16:14:00,73.4,54.7,30.00,East,90,0.0,0.0,52,0.00,,---,0.00,VWS V14.01,2013-08-08 20:14:00,
2013-08-08 16:19:00,73.4,54.7,30.00,NE,45,3.8,3.8,52,0.00,,---,0.00,VWS V14.01,2013-08-08 20:19:00,
2013-08-08 16:24:00,73.4,54.7,29.99,East,90,6.7,6.7,52,0.00,,---,0.00,VWS V14.01,2013-08-08 20:24:00,
2013-08-08 16:29:00,73.5,54.8,29.99,ENE,68,0.0,8.5,52,0.00,,---,0.00,VWS V14.01,2013-08-08 20:29:00,
2013-08-08 16:34:00,73.5,54.8,29.99,East,90,0.0,0.0,52,0.00,,---,0.00,VWS V14.01,2013-08-08 20:34:00,
2013-08-08 16:39:00,73.5,54.8,29.99,ENE,68,2.6,2.6,52,0.00,,---,0.00,VWS V14.01,2013-08-08 20:39:00,
2013-08-08 16:44:00,73.5,54.8,29.99,ENE,68,7.3,7.3,52,0.00,,---,0.00,VWS V14.01,2013-08-08 20:44:00,
2013-08-08 16:49:00,73.4,54.7,29.99,NE,45,0.0,0.0,52,0.00,,---,0.00,VWS V14.01,2013-08-08 20:49:00,
2013-08-08 16:54:00,73.4,55.2,29.98,East,90,0.0,0.0,53,0.00,,---,0.00,VWS V14.01,2013-08-08 20:54:00,
2013-08-08 16:59:00,73.5,55.3,29.98,NE,45,7.8,7.8,53,0.00,,---,0.00,VWS V14.01,2013-08-08 20:59:00,
2013-08-08 17:04:00,73.7,55.5,29.98,ENE,68,0.0,0.0,53,0.00,,---,0.00,VWS V14.01,2013-08-08 21:04:00,
2013-08-08 17:09:00,73.9,55.7,29.98,ENE,68,0.2,0.2,53,0.00,,---,0.00,VWS V14.01,2013-08-08 21:09:00,
2013-08-08 17:14:00,73.9,55.7,29.98,ESE,112,0.0,1.1,53,0.00,,---,0.00,VWS V14.01,2013-08-08 21:14:00,
2013-08-08 17:19:00,73.9,55.7,29.98,NE,45,0.0,0.0,53,0.00,,---,0.00,VWS V14.01,2013-08-08 21:19:00,
2013-08-08 17:24:00,74.1,55.9,29.98,NE,45,2.6,2.6,53,0.00,,---,0.00,VWS V14.01,2013-08-08 21:24:00,
2013-08-08 17:30:00,74.3,56.1,29.98,ENE,68,0.0,0.0,53,0.00,,---,0.00,VWS V14.01,2013-08-08 21:30:00,
2013-08-08 17:36:00,74.4,56.2,29.98,NNE,22,3.8,3.8,53,0.00,,---,0.00,VWS V14.01,2013-08-08 21:36:00,
2013-08-08 17:41:00,74.8,56.5,29.98,NE,45,1.3,1.3,53,0.00,,---,0.00,VWS V14.01,2013-08-08 21:41:00,
2013-08-08 17:46:00,75.3,56.5,29.98,NE,45,3.5,5.8,52,0.00,,---,0.00,VWS V14.01,2013-08-08 21:46:00,
2013-08-08 17:53:00,75.9,57.6,29.98,ENE,68,3.5,3.5,53,0.00,,---,0.00,VWS V14.01,2013-08-08 21:53:00,
2013-08-08 17:58:00,76.4,58.0,29.98,ESE,112,0.0,0.0,53,0.00,,---,0.00,VWS V14.01,2013-08-08 21:58:00,
2013-08-08 18:03:00,77.5,58.0,29.98,ESE,112,8.5,8.5,51,0.00,,---,0.00,VWS V14.01,2013-08-08 22:03:00,
2013-08-08 18:09:00,78.0,57.9,29.98,NE,45,2.6,2.6,50,0.00,,---,0.00,VWS V14.01,2013-08-08 22:09:00,
2013-08-08 18:14:00,78.6,58.4,29.98,ENE,68,0.0,2.2,50,0.00,,---,0.00,VWS V14.01,2013-08-08 22:14:00,
2013-08-08 18:19:00,78.9,58.7,29.98,East,90,0.0,0.0,50,0.00,,---,0.00,VWS V14.01,2013-08-08 22:19:00,
2013-08-08 18:24:00,79.5,58.1,29.97,NE,45,3.5,3.5,48,0.00,,---,0.00,VWS V14.01,2013-08-08 22:24:00,
2013-08-08 18:29:00,79.8,59.0,29.97,ESE,112,3.1,3.1,49,0.00,,---,0.00,VWS V14.01,2013-08-08 22:29:00,
2013-08-08 18:34:00,80.4,58.9,29.97,ENE,68,1.3,1.3,48,0.00,,---,0.00,VWS V14.01,2013-08-08 22:34:00,
2013-08-08 18:39:00,80.6,58.5,29.97,ESE,112,0.6,1.1,47,0.00,,---,0.00,VWS V14.01,2013-08-08 22:39:00,
2013-08-08 18:44:00,80.4,58.3,29.97,ENE,68,0.0,5.8,47,0.00,,---,0.00,VWS V14.01,2013-08-08 22:44:00,
2013-08-08 18:49:00,80.4,58.3,29.97,NE,45,0.0,0.0,47,0.00,,---,0.00,VWS V14.01,2013-08-08 22:49:00,
2013-08-08 18:54:00,80.4,58.9,29.97,ESE,112,0.0,0.0,48,0.00,,---,0.00,VWS V14.01,2013-08-08 22:54:00,
2013-08-08 19:00:00,80.6,59.1,29.97,NE,45,2.0,2.0,48,0.00,,---,0.00,VWS V14.01,2013-08-08 23:00:00,
2013-08-08 19:06:00,80.7,58.6,29.97,WSW,248,5.3,5.3,47,0.00,,---,0.00,VWS V14.01,2013-08-08 23:06:00,
2013-08-08 19:11:00,80.7,58.6,29.97,WSW,248,0.0,0.0,47,0.00,,---,0.00,VWS V14.01,2013-08-08 23:11:00,
2013-08-08 19:16:00,80.6,58.5,29.97,WSW,248,2.2,2.2,47,0.00,,---,0.00,VWS V14.01,2013-08-08 23:16:00,
2013-08-08 19:21:00,80.6,58.5,29.97,WSW,248,0.0,0.0,47,0.00,,---,0.00,VWS V14.01,2013-08-08 23:21:00,
2013-08-08 19:26:00,80.7,58.0,29.97,WSW,248,0.0,0.0,46,0.00,,---,0.00,VWS V14.01,2013-08-08 23:26:00,
2013-08-08 19:31:00,80.4,57.8,29.97,WSW,248,0.0,0.0,46,0.00,,---,0.00,VWS V14.01,2013-08-08 23:31:00,
2013-08-08 19:37:00,79.8,57.2,29.97,ENE,68,0.0,0.0,46,0.00,,---,0.00,VWS V14.01,2013-08-08 23:37:00,
2013-08-08 19:42:00,78.9,57.0,29.97,NNE,22,0.0,0.0,47,0.00,,---,0.00,VWS V14.01,2013-08-08 23:42:00,
2013-08-08 19:47:00,78.0,55.6,29.97,East,90,0.0,0.0,46,0.00,,---,0.00,VWS V14.01,2013-08-08 23:47:00,
2013-08-08 19:52:00,76.8,55.1,29.97,ENE,68,0.0,0.0,47,0.00,,---,0.00,VWS V14.01,2013-08-08 23:52:00,
2013-08-08 19:57:00,76.1,55.0,29.97,NE,45,4.2,4.2,48,0.00,,---,0.00,VWS V14.01,2013-08-08 23:57:00,
2013-08-08 20:02:00,75.3,54.8,29.97,NE,45,0.0,0.0,49,0.00,,---,0.00,VWS V14.01,2013-08-09 00:02:00,
2013-08-08 20:07:00,74.4,54.6,29.97,NE,45,0.0,0.0,50,0.00,,---,0.00,VWS V14.01,2013-08-09 00:07:00,
2013-08-08 20:13:00,74.1,54.8,29.97,ENE,68,0.0,0.0,51,0.00,,---,0.00,VWS V14.01,2013-08-09 00:13:00,
2013-08-08 20:18:00,73.4,54.7,29.97,NE,45,0.0,0.0,52,0.00,,---,0.00,VWS V14.01,2013-08-09 00:18:00,
2013-08-08 20:23:00,73.0,54.4,29.98,NE,45,0.0,0.0,52,0.00,,---,0.00,VWS V14.01,2013-08-09 00:23:00,
2013-08-08 20:28:00,72.6,54.5,29.97,ENE,68,0.0,0.0,53,0.00,,---,0.00,VWS V14.01,2013-08-09 00:28:00,
2013-08-08 20:35:00,72.1,54.6,29.98,NE,45,0.0,0.0,54,0.00,,---,0.00,VWS V14.01,2013-08-09 00:35:00,
2013-08-08 20:40:00,71.9,54.4,29.98,NE,45,0.0,0.0,54,0.00,,---,0.00,VWS V14.01,2013-08-09 00:40:00,
2013-08-08 20:45:00,71.7,54.7,29.99,NE,45,0.0,0.0,55,0.00,,---,0.00,VWS V14.01,2013-08-09 00:45:00,
2013-08-08 20:51:00,71.2,54.2,29.98,ENE,68,0.0,0.0,55,0.00,,---,0.00,VWS V14.01,2013-08-09 00:51:00,
2013-08-08 20:57:00,70.8,54.3,29.98,NE,45,0.0,0.0,56,0.00,,---,0.00,VWS V14.01,2013-08-09 00:57:00,
2013-08-08 21:02:00,70.5,54.1,29.98,NE,45,0.0,0.0,56,0.00,,---,0.00,VWS V14.01,2013-08-09 01:02:00,
2013-08-08 21:07:00,70.3,53.9,29.98,NE,45,0.0,0.0,56,0.00,,---,0.00,VWS V14.01,2013-08-09 01:07:00,
2013-08-08 21:12:00,70.1,54.2,29.98,NE,45,0.0,0.0,57,0.00,,---,0.00,VWS V14.01,2013-08-09 01:12:00,
2013-08-08 21:17:00,69.9,54.0,29.98,NE,45,0.0,0.0,57,0.00,,---,0.00,VWS V14.01,2013-08-09 01:17:00,
2013-08-08 21:22:00,69.6,53.7,29.98,NE,45,0.0,0.0,57,0.00,,---,0.00,VWS V14.01,2013-08-09 01:22:00,
2013-08-08 21:27:00,69.6,53.7,29.99,NE,45,0.0,0.0,57,0.00,,---,0.00,VWS V14.01,2013-08-09 01:27:00,
2013-08-08 21:32:00,69.4,53.5,29.98,NE,45,0.0,0.0,57,0.00,,---,0.00,VWS V14.01,2013-08-09 01:32:00,
2013-08-08 21:37:00,69.0,53.2,29.98,NE,45,0.0,0.0,57,0.00,,---,0.00,VWS V14.01,2013-08-09 01:37:00,
2013-08-08 21:42:00,68.7,52.9,29.98,NE,45,0.0,0.0,57,0.00,,---,0.00,VWS V14.01,2013-08-09 01:42:00,
2013-08-08 21:47:00,68.5,53.2,29.99,NE,45,0.0,0.0,58,0.00,,---,0.00,VWS V14.01,2013-08-09 01:47:00,
2013-08-08 21:52:00,68.1,52.8,29.99,NE,45,0.0,0.0,58,0.00,,---,0.00,VWS V14.01,2013-08-09 01:52:00,
2013-08-08 21:57:00,67.8,52.5,29.99,NE,45,0.0,0.0,58,0.00,,---,0.00,VWS V14.01,2013-08-09 01:57:00,
2013-08-08 22:02:00,67.6,52.8,29.99,NE,45,0.0,0.0,59,0.00,,---,0.00,VWS V14.01,2013-08-09 02:02:00,
2013-08-08 22:09:00,67.2,52.4,29.99,NE,45,0.0,0.0,59,0.00,,---,0.00,VWS V14.01,2013-08-09 02:09:00,
2013-08-08 22:14:00,67.1,52.8,29.99,NE,45,0.0,0.0,60,0.00,,---,0.00,VWS V14.01,2013-08-09 02:14:00,
2013-08-08 22:20:00,66.7,52.4,29.99,NE,45,0.0,0.0,60,0.00,,---,0.00,VWS V14.01,2013-08-09 02:20:00,
2013-08-08 22:25:00,66.7,52.8,29.99,NE,45,0.0,0.0,61,0.00,,---,0.00,VWS V14.01,2013-08-09 02:25:00,
2013-08-08 22:30:00,66.5,52.7,29.99,NE,45,0.0,0.0,61,0.00,,---,0.00,VWS V14.01,2013-08-09 02:30:00,
2013-08-08 22:35:00,66.2,52.4,29.99,NE,45,0.0,0.0,61,0.00,,---,0.00,VWS V14.01,2013-08-09 02:35:00,
2013-08-08 22:40:00,66.0,52.2,29.99,NE,45,0.0,0.0,61,0.00,,---,0.00,VWS V14.01,2013-08-09 02:40:00,
2013-08-08 22:45:00,66.0,52.6,29.99,NE,45,0.0,0.0,62,0.00,,---,0.00,VWS V14.01,2013-08-09 02:45:00,
2013-08-08 22:51:00,65.4,52.1,29.99,NE,45,0.0,0.0,62,0.00,,---,0.00,VWS V14.01,2013-08-09 02:51:00,
2013-08-08 22:56:00,65.3,52.4,29.98,NE,45,0.0,0.0,63,0.00,,---,0.00,VWS V14.01,2013-08-09 02:56:00,
2013-08-08 23:02:00,65.1,52.2,29.98,NE,45,0.0,0.0,63,0.00,,---,0.00,VWS V14.01,2013-08-09 03:02:00,
2013-08-08 23:07:00,64.9,52.5,29.99,NE,45,0.0,0.0,64,0.00,,---,0.00,VWS V14.01,2013-08-09 03:07:00,
2013-08-08 23:12:00,64.9,52.5,29.98,NE,45,0.0,0.0,64,0.00,,---,0.00,VWS V14.01,2013-08-09 03:12:00,
2013-08-08 23:17:00,64.9,52.5,29.98,NE,45,0.0,0.0,64,0.00,,---,0.00,VWS V14.01,2013-08-09 03:17:00,
2013-08-08 23:22:00,64.9,52.9,29.98,NE,45,0.0,0.0,65,0.00,,---,0.00,VWS V14.01,2013-08-09 03:22:00,
2013-08-08 23:27:00,64.9,52.9,29.98,NE,45,0.0,0.0,65,0.00,,---,0.00,VWS V14.01,2013-08-09 03:27:00,
2013-08-08 23:33:00,65.1,53.1,29.98,NE,45,0.0,0.0,65,0.00,,---,0.00,VWS V14.01,2013-08-09 03:33:00,
2013-08-08 23:38:00,65.1,53.1,29.98,NE,45,0.0,0.0,65,0.00,,---,0.00,VWS V14.01,2013-08-09 03:38:00,
2013-08-08 23:44:00,65.1,53.1,29.98,NE,45,0.0,0.0,65,0.00,,---,0.00,VWS V14.01,2013-08-09 03:44:00,
2013-08-08 23:50:00,65.1,53.1,29.98,NE,45,0.0,0.0,65,0.00,,---,0.00,VWS V14.01,2013-08-09 03:50:00,
2013-08-08 23:55:00,65.1,53.1,29.98,NE,45,0.0,0.0,65,0.00,,---,0.00,VWS V14.01,2013-08-09 03:55:00,